createdAt,value
2018-11-12T00:00:00.142Z,1007.23
2018-11-12T00:01:00.067Z,1007.25
2018-11-12T00:02:00.028Z,1007.28
2018-11-12T00:02:59.986Z,1007.23
2018-11-12T00:03:59.941Z,1007.27
2018-11-12T00:04:59.935Z,1007.28
2018-11-12T00:05:59.866Z,1007.27
2018-11-12T00:06:59.824Z,1007.24
2018-11-12T00:07:59.785Z,1007.25
2018-11-12T00:08:59.738Z,1007.26
2018-11-12T00:09:59.697Z,1007.25
2018-11-12T00:10:59.687Z,1007.27
2018-11-12T00:11:59.618Z,1007.23
2018-11-12T00:12:59.570Z,1007.25
2018-11-12T00:13:59.530Z,1007.23
2018-11-12T00:14:59.486Z,1007.27
2018-11-12T00:15:59.512Z,1007.19
2018-11-12T00:16:59.435Z,1007.24
2018-11-12T00:17:59.371Z,1007.23
2018-11-12T00:18:59.327Z,1007.33
2018-11-12T00:19:59.286Z,1007.38
2018-11-12T00:20:59.265Z,1007.41
2018-11-12T00:21:59.245Z,1007.37
2018-11-12T00:22:59.164Z,1007.36
2018-11-12T00:23:59.114Z,1007.43
2018-11-12T00:24:59.080Z,1007.48
2018-11-12T00:25:59.088Z,1007.47
2018-11-12T00:26:59.011Z,1007.48
2018-11-12T00:27:58.954Z,1007.51
2018-11-12T00:28:58.914Z,1007.55
2018-11-12T00:29:58.875Z,1007.57
2018-11-12T00:30:58.834Z,1007.58
2018-11-12T00:31:58.819Z,1007.62
2018-11-12T00:32:58.744Z,1007.66
2018-11-12T00:33:58.703Z,1007.66
2018-11-12T00:34:58.658Z,1007.69
2018-11-12T00:35:58.619Z,1007.71
2018-11-12T00:36:58.610Z,1007.69
2018-11-12T00:37:58.545Z,1007.72
2018-11-12T00:38:58.531Z,1007.78
2018-11-12T00:39:58.462Z,1007.76
2018-11-12T00:40:58.412Z,1007.73
2018-11-12T00:41:58.371Z,1007.77
2018-11-12T00:42:58.338Z,1007.77
2018-11-12T00:43:58.298Z,1007.74
2018-11-12T00:44:58.277Z,1007.76
2018-11-12T00:45:58.231Z,1007.79
2018-11-12T00:46:58.171Z,1007.78
2018-11-12T00:47:58.123Z,1007.80
2018-11-12T00:48:58.089Z,1007.76
2018-11-12T00:49:58.051Z,1007.76
2018-11-12T00:50:58.031Z,1007.74
2018-11-12T00:51:57.965Z,1007.73
2018-11-12T00:52:57.945Z,1007.68
2018-11-12T00:53:57.880Z,1007.59
2018-11-12T00:54:57.837Z,1007.53
2018-11-12T00:55:57.818Z,1007.55
2018-11-12T00:56:57.761Z,1007.59
2018-11-12T00:57:57.722Z,1007.57
2018-11-12T00:58:57.671Z,1007.51
2018-11-12T00:59:57.631Z,1007.53
2018-11-12T01:00:57.623Z,1007.52
2018-11-12T01:01:57.555Z,1007.57
2018-11-12T01:02:57.511Z,1007.58
2018-11-12T01:03:57.496Z,1007.63
2018-11-12T01:04:57.425Z,1007.63
2018-11-12T01:05:57.388Z,1007.67
2018-11-12T01:06:57.342Z,1007.71
2018-11-12T01:07:57.321Z,1007.68
2018-11-12T01:08:57.263Z,1007.70
2018-11-12T01:09:57.224Z,1007.68
2018-11-12T01:10:57.184Z,1007.66
2018-11-12T01:11:57.165Z,1007.67
2018-11-12T01:12:57.095Z,1007.60
2018-11-12T01:13:57.051Z,1007.62
2018-11-12T01:14:57.018Z,1007.63
2018-11-12T01:15:56.986Z,1007.57
2018-11-12T01:16:56.950Z,1007.58
2018-11-12T01:17:56.886Z,1007.59
2018-11-12T01:18:56.844Z,1007.60
2018-11-12T01:19:56.809Z,1007.61
2018-11-12T01:20:56.768Z,1007.56
2018-11-12T01:21:56.750Z,1007.57
2018-11-12T01:22:56.685Z,1007.61
2018-11-12T01:23:56.646Z,1007.60
2018-11-12T01:24:56.598Z,1007.58
2018-11-12T01:25:56.558Z,1007.53
2018-11-12T01:26:57.053Z,1007.55
2018-11-12T01:27:56.471Z,1007.58
2018-11-12T01:28:56.439Z,1007.49
2018-11-12T01:29:56.397Z,1007.58
2018-11-12T01:30:56.349Z,1007.64
2018-11-12T01:31:56.329Z,1007.73
2018-11-12T01:32:56.273Z,1007.74
2018-11-12T01:33:56.233Z,1007.76
2018-11-12T01:34:56.188Z,1007.72
2018-11-12T01:35:56.171Z,1007.77
2018-11-12T01:36:56.160Z,1007.74
2018-11-12T01:37:56.059Z,1007.73
2018-11-12T01:38:56.018Z,1007.75
2018-11-12T01:39:55.973Z,1007.75
2018-11-12T01:40:55.967Z,1007.75
2018-11-12T01:41:55.938Z,1007.76
2018-11-12T01:42:55.858Z,1007.80
2018-11-12T01:43:55.815Z,1007.75
2018-11-12T01:44:55.766Z,1007.78
2018-11-12T01:45:55.752Z,1007.77
2018-11-12T01:46:55.742Z,1007.72
2018-11-12T01:47:55.652Z,1007.71
2018-11-12T01:48:55.603Z,1007.66
2018-11-12T01:49:55.566Z,1007.68
2018-11-12T01:50:55.519Z,1007.66
2018-11-12T01:51:55.513Z,1007.59
2018-11-12T01:52:55.445Z,1007.70
2018-11-12T01:53:55.400Z,1007.67
2018-11-12T01:54:55.361Z,1007.64
2018-11-12T01:55:55.317Z,1007.65
2018-11-12T01:56:55.295Z,1007.67
2018-11-12T01:57:55.227Z,1007.66
2018-11-12T01:58:55.184Z,1007.69
2018-11-12T01:59:55.147Z,1007.68
2018-11-12T02:00:55.108Z,1007.67
2018-11-12T02:01:55.095Z,1007.71
2018-11-12T02:02:55.021Z,1007.70
2018-11-12T02:03:54.977Z,1007.74
2018-11-12T02:04:54.973Z,1007.73
2018-11-12T02:05:54.903Z,1007.65
2018-11-12T02:06:54.862Z,1007.60
2018-11-12T02:07:54.843Z,1007.53
2018-11-12T02:08:54.854Z,1007.51
2018-11-12T02:09:54.730Z,1007.43
2018-11-12T02:11:03.712Z,1007.43
2018-11-12T02:11:54.658Z,1007.46
2018-11-12T02:12:54.612Z,1007.45
2018-11-12T02:13:54.571Z,1007.45
2018-11-12T02:14:54.524Z,1007.47
2018-11-12T02:15:54.504Z,1007.46
2018-11-12T02:16:54.447Z,1007.48
2018-11-12T02:17:54.430Z,1007.48
2018-11-12T02:18:54.358Z,1007.49
2018-11-12T02:19:54.319Z,1007.51
2018-11-12T02:20:54.303Z,1007.50
2018-11-12T02:21:54.229Z,1007.46
2018-11-12T02:22:54.273Z,1007.44
2018-11-12T02:23:54.156Z,1007.40
2018-11-12T02:24:54.116Z,1007.41
2018-11-12T02:25:54.074Z,1007.43
2018-11-12T02:26:54.047Z,1007.41
2018-11-12T02:27:53.981Z,1007.47
2018-11-12T02:28:53.940Z,1007.47
2018-11-12T02:29:53.898Z,1007.46
2018-11-12T02:30:53.888Z,1007.50
2018-11-12T02:31:53.829Z,1007.50
2018-11-12T02:32:53.781Z,1007.53
2018-11-12T02:33:53.757Z,1007.63
2018-11-12T02:34:53.701Z,1007.50
2018-11-12T02:35:53.659Z,1007.48
2018-11-12T02:36:53.618Z,1007.43
2018-11-12T02:37:53.575Z,1007.30
2018-11-12T02:38:53.552Z,1007.22
2018-11-12T02:39:53.482Z,1007.19
2018-11-12T02:40:53.443Z,1007.12
2018-11-12T02:41:53.403Z,1007.12
2018-11-12T02:42:53.365Z,1007.14
2018-11-12T02:43:53.327Z,1007.16
2018-11-12T02:44:53.308Z,1007.18
2018-11-12T02:45:53.241Z,1007.25
2018-11-12T02:46:53.193Z,1007.15
2018-11-12T02:47:53.182Z,1007.18
2018-11-12T02:48:53.118Z,1007.25
2018-11-12T02:49:53.101Z,1007.11
2018-11-12T02:50:53.027Z,1007.04
2018-11-12T02:51:52.986Z,1007.16
2018-11-12T02:52:52.945Z,1007.09
2018-11-12T02:53:52.906Z,1007.07
2018-11-12T02:54:52.890Z,1007.10
2018-11-12T02:55:52.826Z,1007.12
2018-11-12T02:56:52.783Z,1007.12
2018-11-12T02:57:52.793Z,1007.06
2018-11-12T02:58:52.694Z,1007.07
2018-11-12T02:59:52.681Z,1007.12
2018-11-12T03:00:52.614Z,1007.08
2018-11-12T03:01:52.595Z,1007.09
2018-11-12T03:02:52.534Z,1007.11
2018-11-12T03:03:52.497Z,1007.13
2018-11-12T03:04:52.445Z,1007.15
2018-11-12T03:05:52.426Z,1007.15
2018-11-12T03:06:52.369Z,1007.15
2018-11-12T03:07:52.331Z,1007.16
2018-11-12T03:08:52.284Z,1007.22
2018-11-12T03:09:52.243Z,1007.23
2018-11-12T03:10:52.250Z,1007.26
2018-11-12T03:11:52.154Z,1007.22
2018-11-12T03:12:52.113Z,1007.26
2018-11-12T03:13:52.073Z,1007.26
2018-11-12T03:14:52.061Z,1007.27
2018-11-12T03:15:51.996Z,1007.29
2018-11-12T03:16:51.979Z,1007.33
2018-11-12T03:17:51.913Z,1007.27
2018-11-12T03:18:51.866Z,1007.34
2018-11-12T03:19:51.822Z,1007.34
2018-11-12T03:20:51.788Z,1007.35
2018-11-12T03:21:51.770Z,1007.40
2018-11-12T03:22:51.695Z,1007.40
2018-11-12T03:23:51.661Z,1007.37
2018-11-12T03:24:51.615Z,1007.39
2018-11-12T03:25:51.580Z,1007.36
2018-11-12T03:26:51.559Z,1007.40
2018-11-12T03:27:51.598Z,1007.40
2018-11-12T03:28:51.454Z,1007.39
2018-11-12T03:29:51.415Z,1007.35
2018-11-12T03:30:51.369Z,1007.36
2018-11-12T03:31:51.348Z,1007.39
2018-11-12T03:32:51.281Z,1007.37
2018-11-12T03:33:51.266Z,1007.38
2018-11-12T03:34:51.207Z,1007.40
2018-11-12T03:35:51.165Z,1007.45
2018-11-12T03:36:51.119Z,1007.43
2018-11-12T03:37:51.077Z,1007.42
2018-11-12T03:38:51.062Z,1007.45
2018-11-12T03:39:51.070Z,1007.47
2018-11-12T03:40:50.959Z,1007.50
2018-11-12T03:41:50.918Z,1007.51
2018-11-12T03:42:50.867Z,1007.49
2018-11-12T03:43:50.848Z,1007.43
2018-11-12T03:44:50.792Z,1007.41
2018-11-12T03:45:50.752Z,1007.39
2018-11-12T03:46:50.706Z,1007.35
2018-11-12T03:47:50.691Z,1007.33
2018-11-12T03:48:50.620Z,1007.31
2018-11-12T03:49:50.578Z,1007.25
2018-11-12T03:50:50.545Z,1007.18
2018-11-12T03:51:50.503Z,1007.18
2018-11-12T03:52:50.460Z,1007.19
2018-11-12T03:53:50.442Z,1007.18
2018-11-12T03:54:50.394Z,1007.14
2018-11-12T03:55:50.337Z,1007.14
2018-11-12T03:56:50.298Z,1007.13
2018-11-12T03:57:50.255Z,1007.13
2018-11-12T03:58:50.285Z,1007.14
2018-11-12T03:59:50.163Z,1007.19
2018-11-12T04:00:50.124Z,1007.17
2018-11-12T04:01:50.080Z,1007.27
2018-11-12T04:02:50.048Z,1007.26
2018-11-12T04:03:50.030Z,1007.32
2018-11-12T04:04:49.967Z,1007.29
2018-11-12T04:05:49.924Z,1007.23
2018-11-12T04:06:49.930Z,1007.18
2018-11-12T04:07:49.857Z,1007.14
2018-11-12T04:08:49.816Z,1007.17
2018-11-12T04:09:49.758Z,1007.14
2018-11-12T04:10:49.706Z,1007.19
2018-11-12T04:11:58.747Z,1007.18
2018-11-12T04:12:49.658Z,1007.22
2018-11-12T04:13:49.591Z,1007.19
2018-11-12T04:14:49.550Z,1007.20
2018-11-12T04:15:49.512Z,1007.22
2018-11-12T04:16:49.463Z,1007.14
2018-11-12T04:17:49.444Z,1007.15
2018-11-12T04:18:49.412Z,1007.16
2018-11-12T04:19:49.360Z,1007.16
2018-11-12T04:20:49.302Z,1007.16
2018-11-12T04:21:49.262Z,1007.18
2018-11-12T04:22:49.212Z,1007.18
2018-11-12T04:23:49.172Z,1007.23
2018-11-12T04:24:49.160Z,1007.23
2018-11-12T04:25:49.096Z,1007.23
2018-11-12T04:26:49.056Z,1007.23
2018-11-12T04:27:49.035Z,1007.23
2018-11-12T04:28:48.962Z,1007.22
2018-11-12T04:29:48.918Z,1007.19
2018-11-12T04:30:48.903Z,1007.23
2018-11-12T04:31:48.838Z,1007.28
2018-11-12T04:32:48.828Z,1007.24
2018-11-12T04:33:48.765Z,1007.31
2018-11-12T04:34:48.722Z,1007.22
2018-11-12T04:35:48.682Z,1007.18
2018-11-12T04:36:48.631Z,1007.07
2018-11-12T04:37:48.617Z,1006.99
2018-11-12T04:38:48.555Z,1006.93
2018-11-12T04:39:48.519Z,1006.88
2018-11-12T04:40:48.465Z,1006.93
2018-11-12T04:41:48.425Z,1007.02
2018-11-12T04:42:48.403Z,1007.08
2018-11-12T04:43:48.341Z,1007.15
2018-11-12T04:44:48.307Z,1007.08
2018-11-12T04:45:48.266Z,1007.05
2018-11-12T04:46:48.224Z,1006.95
2018-11-12T04:47:48.206Z,1006.88
2018-11-12T04:48:48.135Z,1006.85
2018-11-12T04:49:48.094Z,1006.86
2018-11-12T04:50:48.051Z,1006.90
2018-11-12T04:51:48.034Z,1006.97
2018-11-12T04:52:47.977Z,1006.99
2018-11-12T04:53:48.054Z,1007.05
2018-11-12T04:54:47.888Z,1007.17
2018-11-12T04:55:47.853Z,1007.07
2018-11-12T04:56:47.838Z,1007.02
2018-11-12T04:57:47.771Z,1007.03
2018-11-12T04:58:47.729Z,1007.01
2018-11-12T04:59:47.686Z,1006.98
2018-11-12T05:00:47.636Z,1006.89
2018-11-12T05:01:47.609Z,1006.85
2018-11-12T05:02:47.581Z,1006.89
2018-11-12T05:03:47.513Z,1006.94
2018-11-12T05:04:47.478Z,1006.98
2018-11-12T05:05:47.438Z,1006.97
2018-11-12T05:06:47.396Z,1006.96
2018-11-12T05:07:47.358Z,1006.98
2018-11-12T05:08:47.332Z,1007.00
2018-11-12T05:09:47.264Z,1006.99
2018-11-12T05:10:47.230Z,1007.00
2018-11-12T05:11:47.189Z,1006.95
2018-11-12T05:12:47.139Z,1006.93
2018-11-12T05:13:47.099Z,1006.89
2018-11-12T05:14:47.084Z,1006.93
2018-11-12T05:15:47.017Z,1006.91
2018-11-12T05:16:47.076Z,1006.89
2018-11-12T05:17:46.943Z,1006.90
2018-11-12T05:18:46.900Z,1006.93
2018-11-12T05:19:46.943Z,1006.94
2018-11-12T05:20:46.809Z,1006.89
2018-11-12T05:21:46.769Z,1006.83
2018-11-12T05:22:46.725Z,1006.85
2018-11-12T05:23:46.685Z,1006.86
2018-11-12T05:24:46.650Z,1006.86
2018-11-12T05:25:46.630Z,1006.85
2018-11-12T05:26:46.561Z,1006.84
2018-11-12T05:27:46.519Z,1006.89
2018-11-12T05:28:46.483Z,1006.85
2018-11-12T05:29:46.457Z,1006.89
2018-11-12T05:30:46.422Z,1006.93
2018-11-12T05:31:46.358Z,1006.99
2018-11-12T05:32:46.309Z,1007.09
2018-11-12T05:33:46.294Z,1007.11
2018-11-12T05:34:46.230Z,1007.08
2018-11-12T05:35:46.242Z,1007.06
2018-11-12T05:36:46.154Z,1006.94
2018-11-12T05:37:46.203Z,1006.84
2018-11-12T05:38:46.069Z,1006.77
2018-11-12T05:39:46.065Z,1006.79
2018-11-12T05:40:46.005Z,1006.82
2018-11-12T05:41:45.940Z,1006.88
2018-11-12T05:42:45.906Z,1006.83
2018-11-12T05:43:45.862Z,1006.78
2018-11-12T05:44:45.818Z,1006.81
2018-11-12T05:45:45.795Z,1006.83
2018-11-12T05:46:45.733Z,1006.83
2018-11-12T05:47:45.690Z,1006.86
2018-11-12T05:48:45.658Z,1006.85
2018-11-12T05:49:45.617Z,1006.82
2018-11-12T05:50:45.598Z,1006.85
2018-11-12T05:51:45.533Z,1006.87
2018-11-12T05:52:45.482Z,1006.93
2018-11-12T05:53:45.447Z,1006.87
2018-11-12T05:54:45.400Z,1006.88
2018-11-12T05:55:45.381Z,1006.86
2018-11-12T05:56:45.326Z,1006.87
2018-11-12T05:57:45.285Z,1006.98
2018-11-12T05:58:45.287Z,1006.98
2018-11-12T05:59:45.194Z,1007.00
2018-11-12T06:00:45.184Z,1006.97
2018-11-12T06:01:45.120Z,1006.90
2018-11-12T06:02:45.076Z,1006.88
2018-11-12T06:03:45.037Z,1006.86
2018-11-12T06:04:45.023Z,1006.89
2018-11-12T06:05:44.970Z,1006.94
2018-11-12T06:06:44.906Z,1007.04
2018-11-12T06:07:44.863Z,1007.02
2018-11-12T06:08:44.830Z,1007.07
2018-11-12T06:09:44.787Z,1006.99
2018-11-12T06:10:44.778Z,1006.99
2018-11-12T06:11:44.706Z,1006.95
2018-11-12T06:12:44.663Z,1006.96
2018-11-12T06:13:44.617Z,1006.87
2018-11-12T06:14:44.581Z,1006.94
2018-11-12T06:15:44.540Z,1006.95
2018-11-12T06:16:44.517Z,1006.99
2018-11-12T06:17:44.447Z,1007.03
2018-11-12T06:18:44.412Z,1007.04
2018-11-12T06:19:44.365Z,1007.03
2018-11-12T06:20:44.355Z,1006.99
2018-11-12T06:21:44.290Z,1007.03
2018-11-12T06:22:44.364Z,1007.01
2018-11-12T06:23:44.210Z,1007.04
2018-11-12T06:24:44.160Z,1007.04
2018-11-12T06:25:44.140Z,1007.09
2018-11-12T06:26:44.078Z,1007.13
2018-11-12T06:27:44.035Z,1007.16
2018-11-12T06:28:44.017Z,1007.13
2018-11-12T06:29:43.984Z,1007.16
2018-11-12T06:30:43.913Z,1007.15
2018-11-12T06:31:43.870Z,1007.14
2018-11-12T06:32:43.858Z,1007.14
2018-11-12T06:33:43.796Z,1007.18
2018-11-12T06:34:43.775Z,1007.19
2018-11-12T06:35:43.714Z,1007.29
2018-11-12T06:36:43.713Z,1007.34
2018-11-12T06:37:43.625Z,1007.36
2018-11-12T06:38:43.581Z,1007.33
2018-11-12T06:39:43.562Z,1007.35
2018-11-12T06:40:44.292Z,1007.34
2018-11-12T06:41:43.465Z,1007.30
2018-11-12T06:42:43.586Z,1007.30
2018-11-12T06:43:43.385Z,1007.26
2018-11-12T06:44:43.357Z,1007.28
2018-11-12T06:45:43.294Z,1007.24
2018-11-12T06:46:43.260Z,1007.21
2018-11-12T06:47:43.218Z,1007.24
2018-11-12T06:48:43.171Z,1007.26
2018-11-12T06:49:43.150Z,1007.21
2018-11-12T06:50:43.088Z,1007.19
2018-11-12T06:51:43.046Z,1007.14
2018-11-12T06:52:43.071Z,1007.11
2018-11-12T06:53:42.971Z,1007.12
2018-11-12T06:54:42.951Z,1007.09
2018-11-12T06:55:42.889Z,1007.01
2018-11-12T06:56:42.842Z,1006.96
2018-11-12T06:57:42.801Z,1006.98
2018-11-12T06:58:42.759Z,1007.03
2018-11-12T06:59:42.743Z,1007.05
2018-11-12T07:00:42.711Z,1007.05
2018-11-12T07:01:42.647Z,1007.04
2018-11-12T07:02:42.593Z,1007.07
2018-11-12T07:03:42.553Z,1007.09
2018-11-12T07:04:42.546Z,1007.04
2018-11-12T07:05:42.477Z,1007.03
2018-11-12T07:06:42.489Z,1007.00
2018-11-12T07:07:42.393Z,1006.97
2018-11-12T07:08:42.347Z,1006.96
2018-11-12T07:09:42.331Z,1006.84
2018-11-12T07:10:42.266Z,1006.81
2018-11-12T07:11:42.221Z,1006.81
2018-11-12T07:12:42.190Z,1006.86
2018-11-12T07:13:42.150Z,1006.82
2018-11-12T07:14:42.129Z,1006.83
2018-11-12T07:15:42.068Z,1006.86
2018-11-12T07:16:42.016Z,1006.84
2018-11-12T07:17:41.981Z,1006.79
2018-11-12T07:18:41.996Z,1006.80
2018-11-12T07:19:41.902Z,1006.82
2018-11-12T07:20:41.852Z,1006.89
2018-11-12T07:21:41.812Z,1006.89
2018-11-12T07:22:41.772Z,1006.82
2018-11-12T07:23:41.754Z,1006.75
2018-11-12T07:24:41.695Z,1006.71
2018-11-12T07:25:41.656Z,1006.74
2018-11-12T07:26:41.611Z,1006.75
2018-11-12T07:27:41.579Z,1006.74
2018-11-12T07:28:41.546Z,1006.69
2018-11-12T07:29:41.485Z,1006.66
2018-11-12T07:30:41.500Z,1006.63
2018-11-12T07:31:41.409Z,1006.61
2018-11-12T07:32:41.369Z,1006.59
2018-11-12T07:33:41.349Z,1006.53
2018-11-12T07:34:41.273Z,1006.52
2018-11-12T07:35:41.257Z,1006.48
2018-11-12T07:36:41.202Z,1006.45
2018-11-12T07:37:41.162Z,1006.50
2018-11-12T07:38:41.120Z,1006.47
2018-11-12T07:39:41.105Z,1006.44
2018-11-12T07:40:41.031Z,1006.45
2018-11-12T07:41:41.801Z,1006.39
2018-11-12T07:42:40.947Z,1006.37
2018-11-12T07:43:40.908Z,1006.33
2018-11-12T07:44:40.873Z,1006.31
2018-11-12T07:45:40.855Z,1006.35
2018-11-12T07:46:40.792Z,1006.39
2018-11-12T07:47:40.752Z,1006.41
2018-11-12T07:48:40.729Z,1006.40
2018-11-12T07:49:40.663Z,1006.45
2018-11-12T07:50:40.649Z,1006.45
2018-11-12T07:51:40.633Z,1006.45
2018-11-12T07:52:40.540Z,1006.51
2018-11-12T07:53:40.500Z,1006.58
2018-11-12T07:54:40.458Z,1006.52
2018-11-12T07:55:40.439Z,1006.58
2018-11-12T07:56:40.410Z,1006.59
2018-11-12T07:57:40.342Z,1006.59
2018-11-12T07:58:40.323Z,1006.57
2018-11-12T07:59:40.261Z,1006.56
2018-11-12T08:00:40.211Z,1006.55
2018-11-12T08:01:40.168Z,1006.55
2018-11-12T08:02:40.152Z,1006.52
2018-11-12T08:03:40.151Z,1006.55
2018-11-12T08:04:40.057Z,1006.54
2018-11-12T08:05:40.019Z,1006.58
2018-11-12T08:06:39.966Z,1006.59
2018-11-12T08:07:39.949Z,1006.57
2018-11-12T08:08:39.892Z,1006.58
2018-11-12T08:09:39.921Z,1006.56
2018-11-12T08:10:39.812Z,1006.51
2018-11-12T08:11:39.779Z,1006.47
2018-11-12T08:12:39.744Z,1006.48
2018-11-12T08:13:39.681Z,1006.47
2018-11-12T08:14:39.730Z,1006.43
2018-11-12T08:15:39.598Z,1006.44
2018-11-12T08:16:39.566Z,1006.34
2018-11-12T08:17:39.644Z,1006.27
2018-11-12T08:18:39.563Z,1006.28
2018-11-12T08:19:39.444Z,1006.32
2018-11-12T08:20:39.395Z,1006.32
2018-11-12T08:21:39.392Z,1006.32
2018-11-12T08:22:39.319Z,1006.29
2018-11-12T08:23:39.302Z,1006.27
2018-11-12T08:24:39.258Z,1006.24
2018-11-12T08:25:39.190Z,1006.15
2018-11-12T08:26:39.153Z,1006.17
2018-11-12T08:27:39.109Z,1006.18
2018-11-12T08:28:39.099Z,1006.16
2018-11-12T08:29:39.091Z,1006.20
2018-11-12T08:30:38.994Z,1006.22
2018-11-12T08:31:38.952Z,1006.18
2018-11-12T08:32:38.905Z,1006.16
2018-11-12T08:33:38.895Z,1006.12
2018-11-12T08:34:38.824Z,1006.08
2018-11-12T08:35:38.781Z,1006.12
2018-11-12T08:36:38.869Z,1006.10
2018-11-12T08:37:38.705Z,1006.08
2018-11-12T08:38:38.661Z,1006.10
2018-11-12T08:39:38.802Z,1006.09
2018-11-12T08:40:38.666Z,1006.15
2018-11-12T08:41:38.547Z,1006.14
2018-11-12T08:42:38.503Z,1006.18
2018-11-12T08:43:38.462Z,1006.16
2018-11-12T08:44:38.437Z,1006.13
2018-11-12T08:45:38.377Z,1006.18
2018-11-12T08:46:38.337Z,1006.17
2018-11-12T08:47:38.297Z,1006.13
2018-11-12T08:48:38.280Z,1006.14
2018-11-12T08:49:38.402Z,1006.17
2018-11-12T08:50:38.182Z,1006.20
2018-11-12T08:51:38.141Z,1006.17
2018-11-12T08:52:38.141Z,1006.24
2018-11-12T08:53:38.054Z,1006.20
2018-11-12T08:54:38.130Z,1006.18
2018-11-12T08:55:38.037Z,1006.22
2018-11-12T08:56:37.929Z,1006.23
2018-11-12T08:57:37.904Z,1006.28
2018-11-12T08:58:37.876Z,1006.27
2018-11-12T08:59:37.829Z,1006.30
2018-11-12T09:00:37.809Z,1006.24
2018-11-12T09:01:37.739Z,1006.25
2018-11-12T09:02:37.763Z,1006.25
2018-11-12T09:03:37.659Z,1006.25
2018-11-12T09:04:37.663Z,1006.28
2018-11-12T09:05:37.633Z,1006.28
2018-11-12T09:06:37.554Z,1006.24
2018-11-12T09:07:37.490Z,1006.26
2018-11-12T09:08:37.463Z,1006.20
2018-11-12T09:09:37.420Z,1006.21
2018-11-12T09:10:37.371Z,1006.23
2018-11-12T09:11:37.352Z,1006.24
2018-11-12T09:12:37.298Z,1006.23
2018-11-12T09:13:37.263Z,1006.28
2018-11-12T09:14:37.216Z,1006.29
2018-11-12T09:15:37.225Z,1006.28
2018-11-12T09:16:37.159Z,1006.33
2018-11-12T09:17:37.093Z,1006.36
2018-11-12T09:18:37.054Z,1006.44
2018-11-12T09:19:37.025Z,1006.45
2018-11-12T09:20:36.981Z,1006.41
2018-11-12T09:21:36.966Z,1006.46
2018-11-12T09:22:36.905Z,1006.39
2018-11-12T09:23:36.863Z,1006.42
2018-11-12T09:24:36.817Z,1006.42
2018-11-12T09:25:36.780Z,1006.50
2018-11-12T09:26:36.774Z,1006.49
2018-11-12T09:27:36.709Z,1006.58
2018-11-12T09:28:36.663Z,1006.54
2018-11-12T09:29:36.734Z,1006.50
2018-11-12T09:30:36.585Z,1006.52
2018-11-12T09:31:36.550Z,1006.60
2018-11-12T09:32:36.612Z,1006.64
2018-11-12T09:33:36.479Z,1006.66
2018-11-12T09:34:36.439Z,1006.57
2018-11-12T09:35:36.426Z,1006.61
2018-11-12T09:36:36.426Z,1006.65
2018-11-12T09:38:36.288Z,1006.67
2018-11-12T09:39:36.244Z,1006.57
2018-11-12T09:40:36.249Z,1006.57
2018-11-12T09:41:36.198Z,1006.57
2018-11-12T09:42:36.131Z,1006.58
2018-11-12T09:43:36.094Z,1006.56
2018-11-12T09:44:36.068Z,1006.48
2018-11-12T09:45:36.053Z,1006.47
2018-11-12T09:46:35.993Z,1006.46
2018-11-12T09:47:35.963Z,1006.35
2018-11-12T09:48:35.913Z,1006.37
2018-11-12T09:49:35.880Z,1006.37
2018-11-12T09:50:35.862Z,1006.35
2018-11-12T09:51:35.799Z,1006.43
2018-11-12T09:52:35.769Z,1006.43
2018-11-12T09:53:35.814Z,1006.46
2018-11-12T09:54:35.857Z,1006.42
2018-11-12T09:55:35.710Z,1006.40
2018-11-12T09:56:35.637Z,1006.44
2018-11-12T09:57:35.579Z,1006.39
2018-11-12T09:58:35.547Z,1006.38
2018-11-12T09:59:35.511Z,1006.41
2018-11-12T10:00:35.759Z,1006.38
2018-11-12T10:01:35.905Z,1006.32
2018-11-12T10:02:36.241Z,1006.37
2018-11-12T10:03:36.466Z,1006.40
2018-11-12T10:04:35.882Z,1006.44
2018-11-12T10:05:37.077Z,1006.64
2018-11-12T10:06:36.386Z,1006.72
2018-11-12T10:07:37.347Z,1006.68
2018-11-12T10:08:36.639Z,1006.65
2018-11-12T10:09:36.895Z,1006.74
2018-11-12T10:10:37.542Z,1006.58
2018-11-12T10:11:37.300Z,1006.50
2018-11-12T10:12:38.530Z,1006.50
2018-11-12T10:13:36.950Z,1006.48
2018-11-12T10:14:37.796Z,1006.48
2018-11-12T10:15:38.137Z,1006.43
2018-11-12T10:16:38.291Z,1006.44
2018-11-12T10:17:38.359Z,1006.45
2018-11-12T10:18:34.809Z,1006.47
2018-11-12T10:19:34.816Z,1006.51
2018-11-12T10:20:34.746Z,1006.51
2018-11-12T10:21:34.690Z,1006.51
2018-11-12T10:22:34.652Z,1006.48
2018-11-12T10:23:34.640Z,1006.50
2018-11-12T10:24:34.585Z,1006.46
2018-11-12T10:25:34.559Z,1006.45
2018-11-12T10:26:34.512Z,1006.45
2018-11-12T10:27:34.499Z,1006.48
2018-11-12T10:28:34.431Z,1006.49
2018-11-12T10:29:34.390Z,1006.46
2018-11-12T10:30:34.385Z,1006.47
2018-11-12T10:31:34.325Z,1006.46
2018-11-12T10:32:34.293Z,1006.47
2018-11-12T10:33:34.245Z,1006.46
2018-11-12T10:34:34.236Z,1006.48
2018-11-12T10:35:34.168Z,1006.50
2018-11-12T10:36:34.139Z,1006.49
2018-11-12T10:37:34.103Z,1006.42
2018-11-12T10:38:34.083Z,1006.49
2018-11-12T10:39:34.024Z,1006.48
2018-11-12T10:40:33.982Z,1006.52
2018-11-12T10:41:33.942Z,1006.56
2018-11-12T10:42:33.929Z,1006.54
2018-11-12T10:43:33.891Z,1006.51
2018-11-12T10:44:33.913Z,1006.47
2018-11-12T10:45:33.798Z,1006.45
2018-11-12T10:46:33.751Z,1006.49
2018-11-12T10:47:33.716Z,1006.49
2018-11-12T10:48:33.755Z,1006.53
2018-11-12T10:49:33.669Z,1006.47
2018-11-12T10:50:33.611Z,1006.48
2018-11-12T10:51:33.571Z,1006.51
2018-11-12T10:52:33.526Z,1006.52
2018-11-12T10:53:33.540Z,1006.60
2018-11-12T10:54:33.592Z,1006.60
2018-11-12T10:55:33.751Z,1006.63
2018-11-12T10:56:33.383Z,1006.62
2018-11-12T10:57:33.345Z,1006.59
2018-11-12T10:58:33.346Z,1006.62
2018-11-12T10:59:33.304Z,1006.53
2018-11-12T11:00:33.227Z,1006.54
2018-11-12T11:01:33.189Z,1006.54
2018-11-12T11:02:33.155Z,1006.57
2018-11-12T11:03:33.118Z,1006.62
2018-11-12T11:04:33.095Z,1006.61
2018-11-12T11:05:33.038Z,1006.62
2018-11-12T11:06:32.996Z,1006.65
2018-11-12T11:07:32.961Z,1006.67
2018-11-12T11:08:32.932Z,1006.69
2018-11-12T11:09:32.918Z,1006.70
2018-11-12T11:10:32.860Z,1006.74
2018-11-12T11:11:32.819Z,1006.72
2018-11-12T11:12:32.777Z,1006.77
2018-11-12T11:13:32.738Z,1006.71
2018-11-12T11:14:32.725Z,1006.77
2018-11-12T11:15:32.711Z,1006.72
2018-11-12T11:16:32.638Z,1006.76
2018-11-12T11:17:32.600Z,1006.72
2018-11-12T11:18:32.550Z,1006.68
2018-11-12T11:19:32.551Z,1006.68
2018-11-12T11:20:32.512Z,1006.68
2018-11-12T11:21:32.447Z,1006.61
2018-11-12T11:22:32.410Z,1006.63
2018-11-12T11:23:32.368Z,1006.59
2018-11-12T11:24:32.326Z,1006.58
2018-11-12T11:25:32.303Z,1006.59
2018-11-12T11:26:32.320Z,1006.59
2018-11-12T11:27:32.215Z,1006.57
2018-11-12T11:28:32.186Z,1006.57
2018-11-12T11:29:32.149Z,1006.58
2018-11-12T11:30:32.111Z,1006.59
2018-11-12T11:31:32.100Z,1006.65
2018-11-12T11:32:32.041Z,1006.64
2018-11-12T11:33:31.994Z,1006.62
2018-11-12T11:34:31.963Z,1006.64
2018-11-12T11:35:31.930Z,1006.65
2018-11-12T11:36:31.911Z,1006.64
2018-11-12T11:37:31.852Z,1006.63
2018-11-12T11:38:31.812Z,1006.57
2018-11-12T11:39:31.772Z,1006.60
2018-11-12T11:40:31.746Z,1006.54
2018-11-12T11:41:31.703Z,1006.53
2018-11-12T11:42:31.692Z,1006.53
2018-11-12T11:43:31.631Z,1006.52
2018-11-12T11:44:31.593Z,1006.50
2018-11-12T11:45:31.582Z,1006.50
2018-11-12T11:46:31.543Z,1006.49
2018-11-12T11:47:31.607Z,1006.56
2018-11-12T11:48:31.493Z,1006.61
2018-11-12T11:49:31.413Z,1006.63
2018-11-12T11:50:31.435Z,1006.61
2018-11-12T11:51:31.332Z,1006.64
2018-11-12T11:52:31.327Z,1006.60
2018-11-12T11:53:31.274Z,1006.61
2018-11-12T11:54:31.294Z,1006.66
2018-11-12T11:55:31.198Z,1006.69
2018-11-12T11:56:31.240Z,1006.63
2018-11-12T11:57:32.214Z,1006.61
2018-11-12T11:58:31.080Z,1006.59
2018-11-12T11:59:31.217Z,1006.57
2018-11-12T12:00:31.018Z,1006.56
2018-11-12T12:01:31.014Z,1006.62
2018-11-12T12:02:30.969Z,1006.64
2018-11-12T12:03:30.903Z,1006.65
2018-11-12T12:04:30.861Z,1006.63
2018-11-12T12:05:30.831Z,1006.64